Wheatley, Kentucky
Current Conditions -  °F | °C
As of 12:53 PM on Monday 26 Jan 2015 (Local Time) from KFFT Reporting Station
Overcast Overcast  
Wind Chill: 17°   Ceiling: 1400
Heat Index: 27°   Visibility: 10mi
Dew Point: 20°   Wind: 10mph
Humidity: 75%   Direction: 300°WNW
Pressure: 29.91"   Gusts: NA
Location:  38.4804°N, 84.8067°W
Report Text: KFFT 261753Z AUTO 30009KT 10SM OVC014 M03/M07 A2991 RMK AO2 SLP135 T10281067 11028 21050 50002
Loading
Personal Weather Stations






























Interactive Weather Map New forecast layout! Learn more

10-Day Weather Forecast

Advertisements
Track Severe Weather on mobile